map of LIG home
LIG - Airport
Location
City:  Limoges, Limousin, France
Name:Bellegarde
ICAO:LFBL
IATA:LIG

Details
Type:Airport (Aerodrome, Airfield)
Use:Public/Civil
Latitude:4551'39"N (45.860833)
Longitude:110'49"E (1.180278)
Elevation:1300 ft (396 m)
Variation:0.75E (WMM2015v2 magnetic declination)
0.16 annual change
Runways:2
Longest:8202 × 148 ft (2500 × 45 m), paved

Time
Time Zone:UTC+1 (DST+2)
Local Time:

Weather
METAR:LFBL 041400Z AUTO 16005KT 130V190 9999 // FEW044 OVC058 02/M02 Q1025
TAF:LFBL 041100Z 0412/0512 VRB02KT CAVOK
BECMG 0417/0419 4500 -RASN OVC012
TEMPO 0419/0502 1200 -SN OVC002 PROB30
TEMPO 0419/0424 2000 -FZDZ
TEMPO 0502/0507 1500 BR OVC001 PROB40
TEMPO 0502/0507 0500 FG VV///
BECMG 0507/0509 6000 NSW OVC007

Related Locations
Nearby:
Farthest:CHT: 12251 mi / 19716 km
Waitangi [Tuuta], CIT, NZ

Find:

   beyond  
but within

Other Information
Maps:
NOTAMs:
Links:
Sources:

  
  • flag of France
  • flag of Limousin
  

Sectional Chart

Flight Planning
at skyvector.com

Satellite Image

Google Maps Satellite view

 

Copyright © 2004-2019 Karl L. Swartz. All rights reserved.
The Great Circle Mapper name and logo are trademarks of the Great Circle Mapper.
All other trademarks mentioned herein belong to their respective owners.
Please see credits for attibutions and further copyright information.

  Follow gcmap on Facebook Follow gcmap on Twitter GCmap on LinkedIn

hCard Microformat

Geo Microformat